createdAt,value
2019-03-10T00:00:08.685Z,1004.02
2019-03-10T00:01:08.662Z,1004.07
2019-03-10T00:02:10.442Z,1004.04
2019-03-10T00:03:08.630Z,1004.04
2019-03-10T00:04:08.641Z,1004.12
2019-03-10T00:05:08.625Z,1004.10
2019-03-10T00:06:08.608Z,1004.13
2019-03-10T00:07:08.585Z,1004.14
2019-03-10T00:08:08.575Z,1004.20
2019-03-10T00:09:08.570Z,1004.16
2019-03-10T00:10:08.555Z,1004.22
2019-03-10T00:11:08.558Z,1004.22
2019-03-10T00:12:08.529Z,1004.19
2019-03-10T00:13:08.520Z,1004.20
2019-03-10T00:14:08.507Z,1004.16
2019-03-10T00:15:08.541Z,1004.20
2019-03-10T00:16:08.514Z,1004.22
2019-03-10T00:17:08.487Z,1004.21
2019-03-10T00:18:08.462Z,1004.18
2019-03-10T00:19:08.454Z,1004.15
2019-03-10T00:20:08.439Z,1004.18
2019-03-10T00:21:08.444Z,1004.16
2019-03-10T00:22:08.419Z,1004.20
2019-03-10T00:23:08.440Z,1004.18
2019-03-10T00:24:08.397Z,1004.18
2019-03-10T00:25:08.392Z,1004.12
2019-03-10T00:26:08.410Z,1004.11
2019-03-10T00:27:08.361Z,1004.06
2019-03-10T00:28:08.358Z,1004.08
2019-03-10T00:29:08.339Z,1004.07
2019-03-10T00:30:08.328Z,1004.04
2019-03-10T00:31:08.334Z,1004.04
2019-03-10T00:32:08.310Z,1004.00
2019-03-10T00:33:08.300Z,1004.04
2019-03-10T00:34:08.290Z,1004.05
2019-03-10T00:35:08.278Z,1004.02
2019-03-10T00:36:08.274Z,1004.06
2019-03-10T00:37:08.249Z,1004.00
2019-03-10T00:38:08.241Z,1004.06
2019-03-10T00:39:08.252Z,1004.08
2019-03-10T00:40:08.216Z,1004.03
2019-03-10T00:41:08.219Z,1004.07
2019-03-10T00:42:08.194Z,1004.01
2019-03-10T00:43:08.182Z,1004.05
2019-03-10T00:44:08.169Z,1004.02
2019-03-10T00:45:08.197Z,1004.01
2019-03-10T00:46:08.167Z,1004.01
2019-03-10T00:47:08.135Z,1003.98
2019-03-10T00:48:08.138Z,1003.96
2019-03-10T00:49:08.145Z,1003.98
2019-03-10T00:50:08.111Z,1003.99
2019-03-10T00:51:08.110Z,1003.89
2019-03-10T00:52:08.080Z,1003.93
2019-03-10T00:53:08.072Z,1003.90
2019-03-10T00:54:08.097Z,1003.86
2019-03-10T00:55:08.047Z,1003.93
2019-03-10T00:56:08.046Z,1003.88
2019-03-10T00:57:08.023Z,1003.88
2019-03-10T00:58:08.014Z,1003.86
2019-03-10T00:59:08.011Z,1003.84
2019-03-10T01:00:07.990Z,1003.79
2019-03-10T01:01:07.991Z,1003.82
2019-03-10T01:02:07.987Z,1003.83
2019-03-10T01:03:07.959Z,1003.72
2019-03-10T01:04:07.945Z,1003.73
2019-03-10T01:05:07.951Z,1003.70
2019-03-10T01:06:07.937Z,1003.67
2019-03-10T01:07:07.918Z,1003.63
2019-03-10T01:08:07.919Z,1003.63
2019-03-10T01:09:07.889Z,1003.63
2019-03-10T01:10:07.878Z,1003.64
2019-03-10T01:11:07.881Z,1003.60
2019-03-10T01:12:07.856Z,1003.65
2019-03-10T01:13:07.889Z,1003.64
2019-03-10T01:14:07.832Z,1003.55
2019-03-10T01:15:07.824Z,1003.55
2019-03-10T01:16:07.829Z,1003.52
2019-03-10T01:17:07.805Z,1003.45
2019-03-10T01:18:07.787Z,1003.45
2019-03-10T01:19:07.776Z,1003.49
2019-03-10T01:20:07.776Z,1003.39
2019-03-10T01:21:07.767Z,1003.43
2019-03-10T01:22:07.742Z,1003.39
2019-03-10T01:23:07.733Z,1003.32
2019-03-10T01:24:07.723Z,1003.27
2019-03-10T01:25:07.724Z,1003.25
2019-03-10T01:26:07.884Z,1003.25
2019-03-10T01:27:07.687Z,1003.25
2019-03-10T01:28:07.681Z,1003.23
2019-03-10T01:29:07.671Z,1003.19
2019-03-10T01:30:07.653Z,1003.17
2019-03-10T01:31:07.641Z,1003.14
2019-03-10T01:32:07.661Z,1003.11
2019-03-10T01:33:07.623Z,1003.13
2019-03-10T01:34:07.626Z,1003.18
2019-03-10T01:35:07.608Z,1003.17
2019-03-10T01:36:07.584Z,1003.14
2019-03-10T01:37:07.588Z,1003.14
2019-03-10T01:38:07.585Z,1003.12
2019-03-10T01:39:07.551Z,1003.15
2019-03-10T01:40:07.540Z,1003.13
2019-03-10T01:41:07.531Z,1003.09
2019-03-10T01:42:07.530Z,1003.03
2019-03-10T01:43:07.507Z,1003.02
2019-03-10T01:44:07.514Z,1002.96
2019-03-10T01:45:07.494Z,1002.91
2019-03-10T01:46:07.474Z,1002.89
2019-03-10T01:47:07.488Z,1002.88
2019-03-10T01:48:07.452Z,1002.89
2019-03-10T01:49:07.438Z,1002.89
2019-03-10T01:50:07.429Z,1002.86
2019-03-10T01:51:07.435Z,1002.84
2019-03-10T01:52:07.417Z,1002.79
2019-03-10T01:53:07.394Z,1002.80
2019-03-10T01:54:07.421Z,1002.78
2019-03-10T01:55:07.374Z,1002.84
2019-03-10T01:56:07.371Z,1002.75
2019-03-10T01:57:07.399Z,1002.74
2019-03-10T01:58:07.349Z,1002.72
2019-03-10T01:59:07.328Z,1002.71
2019-03-10T02:00:07.316Z,1002.72
2019-03-10T02:01:07.304Z,1002.70
2019-03-10T02:02:07.309Z,1002.75
2019-03-10T02:03:07.321Z,1002.70
2019-03-10T02:04:07.271Z,1002.76
2019-03-10T02:05:07.264Z,1002.72
2019-03-10T02:06:07.248Z,1002.70
2019-03-10T02:07:07.249Z,1002.66
2019-03-10T02:08:07.226Z,1002.57
2019-03-10T02:09:07.215Z,1002.52
2019-03-10T02:10:07.243Z,1002.54
2019-03-10T02:11:07.192Z,1002.53
2019-03-10T02:12:07.192Z,1002.46
2019-03-10T02:13:07.170Z,1002.44
2019-03-10T02:14:07.165Z,1002.42
2019-03-10T02:15:07.148Z,1002.42
2019-03-10T02:16:07.143Z,1002.39
2019-03-10T02:17:07.137Z,1002.39
2019-03-10T02:18:07.121Z,1002.41
2019-03-10T02:19:07.104Z,1002.36
2019-03-10T02:20:07.113Z,1002.33
2019-03-10T02:21:07.083Z,1002.31
2019-03-10T02:22:07.098Z,1002.28
2019-03-10T02:23:07.059Z,1002.21
2019-03-10T02:24:07.048Z,1002.22
2019-03-10T02:25:07.035Z,1002.18
2019-03-10T02:26:07.024Z,1002.14
2019-03-10T02:27:07.029Z,1002.17
2019-03-10T02:28:07.000Z,1002.11
2019-03-10T02:29:06.996Z,1002.10
2019-03-10T02:30:06.980Z,1002.01
2019-03-10T02:31:06.978Z,1001.95
2019-03-10T02:32:06.982Z,1001.98
2019-03-10T02:33:06.963Z,1001.94
2019-03-10T02:34:06.935Z,1001.91
2019-03-10T02:35:06.951Z,1001.87
2019-03-10T02:36:06.917Z,1001.90
2019-03-10T02:37:06.923Z,1001.86
2019-03-10T02:38:06.892Z,1001.82
2019-03-10T02:39:06.878Z,1001.80
2019-03-10T02:40:06.868Z,1001.84
2019-03-10T02:41:06.868Z,1001.80
2019-03-10T02:42:06.859Z,1001.83
2019-03-10T02:43:06.860Z,1001.82
2019-03-10T02:44:06.822Z,1001.81
2019-03-10T02:45:06.814Z,1001.76
2019-03-10T02:46:06.799Z,1001.66
2019-03-10T02:47:06.809Z,1001.65
2019-03-10T02:48:06.782Z,1001.68
2019-03-10T02:49:06.767Z,1001.61
2019-03-10T02:50:06.756Z,1001.65
2019-03-10T02:51:06.744Z,1001.57
2019-03-10T02:52:06.766Z,1001.53
2019-03-10T02:53:06.736Z,1001.51
2019-03-10T02:54:06.711Z,1001.52
2019-03-10T02:55:06.722Z,1001.52
2019-03-10T02:56:06.709Z,1001.48
2019-03-10T02:57:06.687Z,1001.45
2019-03-10T02:58:06.679Z,1001.45
2019-03-10T02:59:06.688Z,1001.41
2019-03-10T03:00:06.655Z,1001.42
2019-03-10T03:01:06.633Z,1001.40
2019-03-10T03:02:06.642Z,1001.35
2019-03-10T03:03:06.623Z,1001.36
2019-03-10T03:04:06.604Z,1001.35
2019-03-10T03:05:06.684Z,1001.39
2019-03-10T03:06:06.600Z,1001.35
2019-03-10T03:07:06.563Z,1001.35
2019-03-10T03:08:06.593Z,1001.30
2019-03-10T03:09:06.542Z,1001.26
2019-03-10T03:10:06.540Z,1001.21
2019-03-10T03:11:06.522Z,1001.17
2019-03-10T03:12:06.509Z,1001.12
2019-03-10T03:13:06.519Z,1001.14
2019-03-10T03:14:06.573Z,1001.07
2019-03-10T03:15:06.475Z,1001.02
2019-03-10T03:16:06.465Z,1000.95
2019-03-10T03:17:06.450Z,1000.92
2019-03-10T03:18:06.457Z,1000.95
2019-03-10T03:19:06.479Z,1000.91
2019-03-10T03:20:06.428Z,1000.89
2019-03-10T03:21:06.407Z,1000.89
2019-03-10T03:22:06.397Z,1000.87
2019-03-10T03:23:06.400Z,1000.86
2019-03-10T03:24:06.374Z,1000.86
2019-03-10T03:25:06.366Z,1000.85
2019-03-10T03:26:06.368Z,1000.86
2019-03-10T03:27:06.342Z,1000.86
2019-03-10T03:28:06.340Z,1000.84
2019-03-10T03:29:06.319Z,1000.81
2019-03-10T03:30:06.360Z,1000.78
2019-03-10T03:31:06.340Z,1000.73
2019-03-10T03:32:06.295Z,1000.72
2019-03-10T03:33:06.288Z,1000.78
2019-03-10T03:34:06.266Z,1000.70
2019-03-10T03:35:06.253Z,1000.72
2019-03-10T03:36:06.238Z,1000.71
2019-03-10T03:37:06.231Z,1000.68
2019-03-10T03:38:06.240Z,1000.65
2019-03-10T03:39:06.205Z,1000.66
2019-03-10T03:40:06.193Z,1000.64
2019-03-10T03:41:06.188Z,1000.66
2019-03-10T03:42:06.201Z,1000.63
2019-03-10T03:43:06.173Z,1000.67
2019-03-10T03:44:06.168Z,1000.70
2019-03-10T03:45:06.139Z,1000.64
2019-03-10T03:46:06.127Z,1000.63
2019-03-10T03:47:06.116Z,1000.52
2019-03-10T03:48:06.128Z,1000.51
2019-03-10T03:49:06.097Z,1000.47
2019-03-10T03:50:06.087Z,1000.48
2019-03-10T03:51:06.073Z,1000.46
2019-03-10T03:52:06.074Z,1000.43
2019-03-10T03:53:06.061Z,1000.44
2019-03-10T03:54:06.045Z,1000.42
2019-03-10T03:55:06.043Z,1000.36
2019-03-10T03:56:08.058Z,1000.32
2019-03-10T03:57:06.007Z,1000.30
2019-03-10T03:58:06.010Z,1000.30
2019-03-10T03:59:05.981Z,1000.29
2019-03-10T04:00:05.973Z,1000.24
2019-03-10T04:01:05.958Z,1000.27
2019-03-10T04:02:05.947Z,1000.19
2019-03-10T04:03:05.940Z,1000.20
2019-03-10T04:04:06.023Z,1000.12
2019-03-10T04:05:05.927Z,1000.08
2019-03-10T04:06:05.919Z,1000.08
2019-03-10T04:07:05.892Z,1000.10
2019-03-10T04:08:05.880Z,1000.08
2019-03-10T04:09:05.881Z,1000.09
2019-03-10T04:10:05.865Z,1000.05
2019-03-10T04:11:05.863Z,1000.06
2019-03-10T04:12:05.837Z,1000.05
2019-03-10T04:13:05.824Z,1000.07
2019-03-10T04:14:05.825Z,999.99
2019-03-10T04:15:05.802Z,999.99
2019-03-10T04:16:12.801Z,999.98
2019-03-10T04:17:05.781Z,999.92
2019-03-10T04:18:05.775Z,999.92
2019-03-10T04:19:05.773Z,999.92
2019-03-10T04:20:05.746Z,999.85
2019-03-10T04:21:05.736Z,999.90
2019-03-10T04:22:05.736Z,999.87
2019-03-10T04:23:05.722Z,999.82
2019-03-10T04:24:05.726Z,999.76
2019-03-10T04:25:05.690Z,999.82
2019-03-10T04:26:05.680Z,999.75
2019-03-10T04:27:05.679Z,999.73
2019-03-10T04:28:05.680Z,999.67
2019-03-10T04:29:05.662Z,999.67
2019-03-10T04:30:05.660Z,999.64
2019-03-10T04:31:05.623Z,999.64
2019-03-10T04:32:05.614Z,999.62
2019-03-10T04:33:05.611Z,999.60
2019-03-10T04:34:05.601Z,999.58
2019-03-10T04:35:05.591Z,999.59
2019-03-10T04:36:05.566Z,999.59
2019-03-10T04:37:05.557Z,999.63
2019-03-10T04:38:05.545Z,999.62
2019-03-10T04:39:05.546Z,999.63
2019-03-10T04:40:05.523Z,999.59
2019-03-10T04:41:05.525Z,999.60
2019-03-10T04:42:05.500Z,999.59
2019-03-10T04:43:05.496Z,999.55
2019-03-10T04:44:05.490Z,999.55
2019-03-10T04:45:05.470Z,999.52
2019-03-10T04:46:05.462Z,999.50
2019-03-10T04:47:05.459Z,999.47
2019-03-10T04:48:05.434Z,999.49
2019-03-10T04:49:05.449Z,999.45
2019-03-10T04:50:05.412Z,999.43
2019-03-10T04:51:05.423Z,999.38
2019-03-10T04:52:05.413Z,999.39
2019-03-10T04:53:05.375Z,999.34
2019-03-10T04:54:05.432Z,999.30
2019-03-10T04:55:09.140Z,999.29
2019-03-10T04:56:05.351Z,999.30
2019-03-10T04:57:05.341Z,999.26
2019-03-10T04:58:05.321Z,999.23
2019-03-10T04:59:05.342Z,999.20
2019-03-10T05:00:05.298Z,999.20
2019-03-10T05:01:05.305Z,999.19
2019-03-10T05:02:05.286Z,999.12
2019-03-10T05:03:05.267Z,999.12
2019-03-10T05:04:05.267Z,999.08
2019-03-10T05:05:05.257Z,999.08
2019-03-10T05:06:05.261Z,999.02
2019-03-10T05:07:05.221Z,999.00
2019-03-10T05:08:05.212Z,998.98
2019-03-10T05:09:05.198Z,998.99
2019-03-10T05:10:05.197Z,998.98
2019-03-10T05:11:05.181Z,998.92
2019-03-10T05:12:05.182Z,998.91
2019-03-10T05:13:05.158Z,998.92
2019-03-10T05:14:05.169Z,998.83
2019-03-10T05:15:05.150Z,998.82
2019-03-10T05:16:05.123Z,998.76
2019-03-10T05:17:05.110Z,998.76
2019-03-10T05:18:05.121Z,998.76
2019-03-10T05:19:05.091Z,998.72
2019-03-10T05:20:05.086Z,998.72
2019-03-10T05:21:05.068Z,998.70
2019-03-10T05:22:05.052Z,998.70
2019-03-10T05:23:05.040Z,998.65
2019-03-10T05:24:05.033Z,998.65
2019-03-10T05:25:05.044Z,998.64
2019-03-10T05:26:05.010Z,998.67
2019-03-10T05:27:05.017Z,998.67
2019-03-10T05:28:04.985Z,998.61
2019-03-10T05:29:04.973Z,998.60
2019-03-10T05:30:04.976Z,998.64
2019-03-10T05:31:04.982Z,998.58
2019-03-10T05:32:04.952Z,998.55
2019-03-10T05:33:04.928Z,998.55
2019-03-10T05:34:04.918Z,998.51
2019-03-10T05:35:04.918Z,998.48
2019-03-10T05:36:04.899Z,998.47
2019-03-10T05:37:04.906Z,998.43
2019-03-10T05:38:04.878Z,998.38
2019-03-10T05:39:04.861Z,998.39
2019-03-10T05:40:04.864Z,998.34
2019-03-10T05:41:04.844Z,998.26
2019-03-10T05:42:04.829Z,998.22
2019-03-10T05:43:04.818Z,998.16
2019-03-10T05:44:04.822Z,998.23
2019-03-10T05:45:04.805Z,998.20
2019-03-10T05:46:04.786Z,998.16
2019-03-10T05:47:04.773Z,998.09
2019-03-10T05:48:04.762Z,998.17
2019-03-10T05:49:04.751Z,998.14
2019-03-10T05:50:04.773Z,998.10
2019-03-10T05:51:04.734Z,998.05
2019-03-10T05:52:04.718Z,998.03
2019-03-10T05:53:04.718Z,998.01
2019-03-10T05:54:04.696Z,997.98
2019-03-10T05:55:05.209Z,997.97
2019-03-10T05:56:04.675Z,997.93
2019-03-10T05:57:04.667Z,997.97
2019-03-10T05:58:04.653Z,997.92
2019-03-10T05:59:04.660Z,997.91
2019-03-10T06:00:04.678Z,997.88
2019-03-10T06:01:04.618Z,997.85
2019-03-10T06:02:04.604Z,997.80
2019-03-10T06:03:04.603Z,997.75
2019-03-10T06:04:04.580Z,997.76
2019-03-10T06:05:06.030Z,997.75
2019-03-10T06:06:04.580Z,997.74
2019-03-10T06:07:04.549Z,997.72
2019-03-10T06:08:04.540Z,997.71
2019-03-10T06:09:04.527Z,997.68
2019-03-10T06:10:04.521Z,997.69
2019-03-10T06:11:04.525Z,997.65
2019-03-10T06:12:04.498Z,997.63
2019-03-10T06:13:04.506Z,997.60
2019-03-10T06:14:04.509Z,997.67
2019-03-10T06:15:04.459Z,997.60
2019-03-10T06:16:04.460Z,997.60
2019-03-10T06:17:04.435Z,997.59
2019-03-10T06:18:13.100Z,997.56
2019-03-10T06:19:05.412Z,997.49
2019-03-10T06:20:04.415Z,997.43
2019-03-10T06:21:04.411Z,997.38
2019-03-10T06:22:04.379Z,997.34
2019-03-10T06:23:04.392Z,997.33
2019-03-10T06:24:04.357Z,997.30
2019-03-10T06:25:04.398Z,997.25
2019-03-10T06:26:04.374Z,997.27
2019-03-10T06:27:04.323Z,997.24
2019-03-10T06:28:04.312Z,997.29
2019-03-10T06:29:04.314Z,997.19
2019-03-10T06:30:04.290Z,997.15
2019-03-10T06:31:04.291Z,997.07
2019-03-10T06:32:04.300Z,997.02
2019-03-10T06:33:04.256Z,997.00
2019-03-10T06:34:04.246Z,996.95
2019-03-10T06:35:04.240Z,996.98
2019-03-10T06:36:04.259Z,997.01
2019-03-10T06:37:04.216Z,997.03
2019-03-10T06:38:04.200Z,997.00
2019-03-10T06:39:04.200Z,996.93
2019-03-10T06:40:04.185Z,996.91
2019-03-10T06:41:04.208Z,996.80
2019-03-10T06:42:04.154Z,996.86
2019-03-10T06:43:04.144Z,996.85
2019-03-10T06:44:04.132Z,996.79
2019-03-10T06:45:04.126Z,996.74
2019-03-10T06:46:04.144Z,996.78
2019-03-10T06:47:04.108Z,996.76
2019-03-10T06:48:04.095Z,996.84
2019-03-10T06:49:04.076Z,996.70
2019-03-10T06:50:04.067Z,996.64
2019-03-10T06:51:04.069Z,996.65
2019-03-10T06:52:04.043Z,996.63
2019-03-10T06:53:04.049Z,996.59
2019-03-10T06:54:04.021Z,996.54
2019-03-10T06:55:04.011Z,996.46
2019-03-10T06:56:04.009Z,996.44
2019-03-10T06:57:03.990Z,996.38
2019-03-10T06:58:03.979Z,996.36
2019-03-10T06:59:04.003Z,996.36
2019-03-10T07:00:03.953Z,996.30
2019-03-10T07:01:04.020Z,996.32
2019-03-10T07:02:03.936Z,996.29
2019-03-10T07:03:03.924Z,996.28
2019-03-10T07:04:03.911Z,996.27
2019-03-10T07:05:03.899Z,996.26
2019-03-10T07:06:03.888Z,996.25
2019-03-10T07:07:03.911Z,996.23
2019-03-10T07:08:03.864Z,996.24
2019-03-10T07:09:03.853Z,996.24
2019-03-10T07:10:03.858Z,996.23
2019-03-10T07:11:03.831Z,996.22
2019-03-10T07:12:03.841Z,996.20
2019-03-10T07:13:03.833Z,996.21
2019-03-10T07:14:03.800Z,996.18
2019-03-10T07:15:03.821Z,996.11
2019-03-10T07:16:03.781Z,996.09
2019-03-10T07:17:03.774Z,996.01
2019-03-10T07:18:03.755Z,995.95
2019-03-10T07:19:03.764Z,995.90
2019-03-10T07:20:03.733Z,995.88
2019-03-10T07:21:03.720Z,995.84
2019-03-10T07:22:03.733Z,995.83
2019-03-10T07:23:03.695Z,995.82
2019-03-10T07:24:03.709Z,995.82
2019-03-10T07:25:03.681Z,995.87
2019-03-10T07:26:03.671Z,995.87
2019-03-10T07:27:03.682Z,995.90
2019-03-10T07:28:03.643Z,995.93
2019-03-10T07:29:03.642Z,995.91
2019-03-10T07:30:03.621Z,995.88
2019-03-10T07:31:03.649Z,995.85
2019-03-10T07:32:03.615Z,995.80
2019-03-10T07:33:03.613Z,995.81
2019-03-10T07:34:03.574Z,995.78
2019-03-10T07:35:03.562Z,995.73
2019-03-10T07:36:03.553Z,995.66
2019-03-10T07:37:03.607Z,995.59
2019-03-10T07:38:03.528Z,995.53
2019-03-10T07:39:03.532Z,995.49
2019-03-10T07:40:03.506Z,995.47
2019-03-10T07:41:03.496Z,995.44
2019-03-10T07:42:03.767Z,995.39
2019-03-10T07:43:03.537Z,995.40
2019-03-10T07:44:03.469Z,995.37
2019-03-10T07:45:03.452Z,995.32
2019-03-10T07:46:03.439Z,995.33
2019-03-10T07:47:03.476Z,995.29
2019-03-10T07:48:03.422Z,995.25
2019-03-10T07:49:03.405Z,995.24
2019-03-10T07:50:03.407Z,995.22
2019-03-10T07:51:03.383Z,995.14
2019-03-10T07:52:03.384Z,995.14
2019-03-10T07:53:03.360Z,995.13
2019-03-10T07:54:03.360Z,995.11
2019-03-10T07:55:03.340Z,995.06
2019-03-10T07:56:03.328Z,995.12
2019-03-10T07:57:03.350Z,995.09
2019-03-10T07:58:03.304Z,995.01
2019-03-10T07:59:03.305Z,995.00
2019-03-10T08:00:03.282Z,994.98
2019-03-10T08:01:03.271Z,994.94
2019-03-10T08:02:03.270Z,994.89
2019-03-10T08:03:03.257Z,994.89
2019-03-10T08:04:03.239Z,994.89
2019-03-10T08:05:03.229Z,994.87
2019-03-10T08:06:03.216Z,994.85
2019-03-10T08:07:03.227Z,994.84
2019-03-10T08:08:03.193Z,994.79
2019-03-10T08:09:03.185Z,994.75
2019-03-10T08:10:03.177Z,994.73
2019-03-10T08:11:03.179Z,994.68
2019-03-10T08:12:03.152Z,994.67
2019-03-10T08:13:03.147Z,994.63
2019-03-10T08:14:03.131Z,994.61
2019-03-10T08:15:03.123Z,994.67
2019-03-10T08:16:03.112Z,994.59
2019-03-10T08:17:03.101Z,994.55
2019-03-10T08:18:03.094Z,994.53
2019-03-10T08:19:03.072Z,994.51
2019-03-10T08:20:03.058Z,994.56
2019-03-10T08:21:03.047Z,994.53
2019-03-10T08:22:03.039Z,994.48
2019-03-10T08:23:03.042Z,994.44
2019-03-10T08:24:03.019Z,994.40
2019-03-10T08:25:03.001Z,994.36
2019-03-10T08:26:02.993Z,994.31
2019-03-10T08:27:02.987Z,994.34
2019-03-10T08:28:02.995Z,994.32
2019-03-10T08:29:02.977Z,994.33
2019-03-10T08:30:02.950Z,994.30
2019-03-10T08:31:02.940Z,994.28
2019-03-10T08:32:09.975Z,994.26
2019-03-10T08:33:02.942Z,994.25
2019-03-10T08:34:09.914Z,994.22
2019-03-10T08:35:09.968Z,994.20
2019-03-10T08:36:02.879Z,994.10
2019-03-10T08:37:02.867Z,994.13
2019-03-10T08:38:02.873Z,994.09
2019-03-10T08:39:02.844Z,994.07
2019-03-10T08:40:02.833Z,994.03
2019-03-10T08:41:02.987Z,994.03
2019-03-10T08:42:02.987Z,994.01
2019-03-10T08:43:02.967Z,993.98
2019-03-10T08:44:02.832Z,993.93
2019-03-10T08:45:02.845Z,993.91
2019-03-10T08:46:02.815Z,993.83
2019-03-10T08:47:02.760Z,993.80
2019-03-10T08:48:02.833Z,993.78
2019-03-10T08:49:02.757Z,993.71
2019-03-10T08:50:02.861Z,993.71
2019-03-10T08:51:02.717Z,993.65
2019-03-10T08:52:02.745Z,993.69
2019-03-10T08:53:02.722Z,993.66
2019-03-10T08:54:02.744Z,993.69
2019-03-10T08:55:02.698Z,993.73
2019-03-10T08:56:05.522Z,993.74
2019-03-10T08:57:02.656Z,993.74
2019-03-10T08:58:02.647Z,993.68
2019-03-10T08:59:02.691Z,993.64
2019-03-10T09:00:02.661Z,993.62
2019-03-10T09:01:02.616Z,993.64
2019-03-10T09:02:02.688Z,993.60
2019-03-10T09:03:02.625Z,993.57
2019-03-10T09:04:02.924Z,993.58
2019-03-10T09:05:02.627Z,993.55
2019-03-10T09:06:02.585Z,993.59
2019-03-10T09:07:02.583Z,993.55
2019-03-10T09:08:02.530Z,993.53
2019-03-10T09:09:02.569Z,993.47
2019-03-10T09:10:02.523Z,993.42
2019-03-10T09:11:02.520Z,993.36
2019-03-10T09:12:02.494Z,993.30
2019-03-10T09:13:02.502Z,993.24
2019-03-10T09:14:02.512Z,993.15
2019-03-10T09:15:02.476Z,993.10
2019-03-10T09:16:02.557Z,993.07
2019-03-10T09:17:02.431Z,992.99
2019-03-10T09:18:02.445Z,992.99
2019-03-10T09:19:02.455Z,992.97
2019-03-10T09:20:02.433Z,992.96
2019-03-10T09:21:02.399Z,992.88
2019-03-10T09:22:02.379Z,992.85
2019-03-10T09:23:02.378Z,992.79
2019-03-10T09:24:02.399Z,992.78
2019-03-10T09:25:02.410Z,992.77
2019-03-10T09:26:02.371Z,992.80
2019-03-10T09:27:02.343Z,992.86
2019-03-10T09:28:02.321Z,992.80
2019-03-10T09:29:02.329Z,992.78
2019-03-10T09:30:02.311Z,992.78
2019-03-10T09:31:02.294Z,992.70
2019-03-10T09:32:02.291Z,992.67
2019-03-10T09:33:02.342Z,992.67
2019-03-10T09:34:02.324Z,992.64
2019-03-10T09:35:02.290Z,992.62
2019-03-10T09:36:02.275Z,992.59
2019-03-10T09:37:02.261Z,992.57
2019-03-10T09:38:03.793Z,992.53
2019-03-10T09:39:02.229Z,992.48
2019-03-10T09:40:02.228Z,992.45
2019-03-10T09:41:02.213Z,992.44
2019-03-10T09:42:02.158Z,992.45
2019-03-10T09:43:02.171Z,992.43
2019-03-10T09:44:03.888Z,992.38
2019-03-10T09:45:02.137Z,992.41
2019-03-10T09:46:02.122Z,992.37
2019-03-10T09:47:02.098Z,992.34
2019-03-10T09:48:02.132Z,992.36
2019-03-10T09:49:02.092Z,992.36
2019-03-10T09:50:02.096Z,992.34
2019-03-10T09:51:02.054Z,992.31
2019-03-10T09:52:02.062Z,992.21
2019-03-10T09:53:02.071Z,992.16
2019-03-10T09:54:02.064Z,992.10
2019-03-10T09:55:02.043Z,992.10
2019-03-10T09:56:01.998Z,992.11
2019-03-10T09:57:02.013Z,992.10
2019-03-10T09:58:02.018Z,992.03
2019-03-10T09:59:01.963Z,992.02
2019-03-10T10:00:01.985Z,991.93
2019-03-10T10:01:01.988Z,991.90
2019-03-10T10:02:01.948Z,991.91
2019-03-10T10:03:01.927Z,991.89
2019-03-10T10:04:02.041Z,991.89
2019-03-10T10:05:01.935Z,991.90
2019-03-10T10:06:01.907Z,991.89
2019-03-10T10:07:02.178Z,991.91
2019-03-10T10:08:01.865Z,991.94
2019-03-10T10:09:01.857Z,991.95
2019-03-10T10:10:01.853Z,991.88
2019-03-10T10:11:02.635Z,991.88
2019-03-10T10:12:12.711Z,991.87
2019-03-10T10:13:02.821Z,991.83
2019-03-10T10:14:01.950Z,991.74
2019-03-10T10:15:01.805Z,991.71
2019-03-10T10:16:01.813Z,991.65
2019-03-10T10:17:01.770Z,991.62
2019-03-10T10:18:01.751Z,991.59
2019-03-10T10:19:01.753Z,991.58
2019-03-10T10:20:01.773Z,991.58
2019-03-10T10:21:01.770Z,991.59
2019-03-10T10:22:01.886Z,991.51
2019-03-10T10:23:01.706Z,991.50
2019-03-10T10:24:01.721Z,991.41
2019-03-10T10:25:01.726Z,991.39
2019-03-10T10:26:01.767Z,991.33
2019-03-10T10:27:01.692Z,991.29
2019-03-10T10:28:01.665Z,991.27
2019-03-10T10:29:01.752Z,991.23
2019-03-10T10:30:01.672Z,991.22
2019-03-10T10:31:01.602Z,991.09
2019-03-10T10:32:01.607Z,991.18
2019-03-10T10:33:01.632Z,991.12
2019-03-10T10:34:01.630Z,991.05
2019-03-10T10:35:01.722Z,990.99
2019-03-10T10:36:01.645Z,990.96
2019-03-10T10:37:01.562Z,990.94
2019-03-10T10:38:01.525Z,990.99
2019-03-10T10:39:01.620Z,990.99
2019-03-10T10:40:01.533Z,990.95
2019-03-10T10:41:01.559Z,990.93
2019-03-10T10:42:01.501Z,990.92
2019-03-10T10:43:01.495Z,990.91
2019-03-10T10:44:01.505Z,990.92
2019-03-10T10:45:01.474Z,990.87
2019-03-10T10:46:01.494Z,990.92
2019-03-10T10:47:01.427Z,990.97
2019-03-10T10:48:01.450Z,990.94
2019-03-10T10:49:01.428Z,990.90
2019-03-10T10:50:01.391Z,990.87
2019-03-10T10:51:01.428Z,990.84
2019-03-10T10:52:01.442Z,990.85
2019-03-10T10:53:01.358Z,990.75
2019-03-10T10:54:01.354Z,990.82
2019-03-10T10:55:01.368Z,990.87
2019-03-10T10:56:01.340Z,990.89
2019-03-10T10:57:01.395Z,990.84
2019-03-10T10:58:01.311Z,990.89
2019-03-10T10:59:01.331Z,990.85
2019-03-10T11:00:01.317Z,990.80
2019-03-10T11:01:01.318Z,990.83
2019-03-10T11:02:01.274Z,990.81
2019-03-10T11:03:01.273Z,990.76
2019-03-10T11:04:01.253Z,990.77
2019-03-10T11:05:01.233Z,990.73
2019-03-10T11:06:01.266Z,990.74
2019-03-10T11:07:01.203Z,990.70
2019-03-10T11:08:01.213Z,990.70
2019-03-10T11:09:02.999Z,990.62
2019-03-10T11:10:01.209Z,990.60
2019-03-10T11:11:01.190Z,990.60
2019-03-10T11:12:01.171Z,990.60
2019-03-10T11:13:01.135Z,990.55
2019-03-10T11:14:01.162Z,990.60
2019-03-10T11:15:01.124Z,990.61
2019-03-10T11:16:01.144Z,990.59
2019-03-10T11:17:01.088Z,990.57
2019-03-10T11:18:08.863Z,990.54
2019-03-10T11:19:02.100Z,990.53
2019-03-10T11:20:01.061Z,990.48
2019-03-10T11:21:01.106Z,990.53
2019-03-10T11:22:01.132Z,990.49
2019-03-10T11:23:01.011Z,990.49
2019-03-10T11:24:01.010Z,990.47
2019-03-10T11:25:01.060Z,990.46
2019-03-10T11:26:01.018Z,990.42
2019-03-10T11:27:01.093Z,990.40
2019-03-10T11:28:01.056Z,990.39
2019-03-10T11:29:03.791Z,990.37
2019-03-10T11:30:00.934Z,990.32
2019-03-10T11:31:01.475Z,990.35
2019-03-10T11:32:00.935Z,990.38
2019-03-10T11:33:00.976Z,990.40
2019-03-10T11:34:01.059Z,990.38
2019-03-10T11:35:00.936Z,990.28
2019-03-10T11:36:00.954Z,990.20
2019-03-10T11:37:00.903Z,990.18
2019-03-10T11:38:00.881Z,990.22
2019-03-10T11:39:00.933Z,990.21
2019-03-10T11:40:00.976Z,990.22
2019-03-10T11:41:00.886Z,990.31
2019-03-10T11:42:00.919Z,990.19
2019-03-10T11:43:00.836Z,990.12
2019-03-10T11:44:00.778Z,990.15
2019-03-10T11:45:00.764Z,990.09
2019-03-10T11:46:00.750Z,989.91
2019-03-10T11:47:00.757Z,989.80
2019-03-10T11:48:00.737Z,989.80
2019-03-10T11:49:00.715Z,989.85
2019-03-10T11:50:00.700Z,989.90
2019-03-10T11:51:00.695Z,989.91
2019-03-10T11:52:01.482Z,989.88
2019-03-10T11:53:00.770Z,989.90
2019-03-10T11:54:00.692Z,989.85
2019-03-10T11:55:00.684Z,989.77
2019-03-10T11:56:00.659Z,989.79
2019-03-10T11:57:00.694Z,989.78
2019-03-10T11:58:00.676Z,989.75
2019-03-10T11:59:00.775Z,989.75
2019-03-10T12:00:00.663Z,989.78
2019-03-10T12:01:00.665Z,989.83
2019-03-10T12:02:00.705Z,989.70
2019-03-10T12:03:00.588Z,989.68
2019-03-10T12:04:00.599Z,989.65
2019-03-10T12:05:00.614Z,989.61
2019-03-10T12:06:00.557Z,989.58
2019-03-10T12:07:00.699Z,989.63
2019-03-10T12:08:00.596Z,989.67
2019-03-10T12:09:00.554Z,989.61
2019-03-10T12:10:00.638Z,989.68
2019-03-10T12:11:00.498Z,989.63
2019-03-10T12:12:00.559Z,989.59
2019-03-10T12:13:00.485Z,989.52
2019-03-10T12:14:00.468Z,989.49
2019-03-10T12:15:00.525Z,989.45
2019-03-10T12:16:00.477Z,989.40
2019-03-10T12:17:00.441Z,989.31
2019-03-10T12:18:00.437Z,989.27
2019-03-10T12:19:00.411Z,989.24
2019-03-10T12:20:00.509Z,989.16